Time;durP1;ratioP1;P1;durP2;ratioP2;P2;SDS_P1;SDS_P2;PMS_P1;PMS_P2;Temp;Humidity;BMP_temperature;BMP_pressure;BME280_temperature;BME280_humidity;BME280_pressure;Samples;Min_cycle;Max_cycle;Signal;HPM_P1;HPM_P2
2023/10/27 00:01:08;;;;;;;4.33;1.47;;;;;;;20.46;61.16;98039.50;6215856;23;20142;-89
2023/10/27 00:03:34;;;;;;;11.43;2.00;;;;;;;20.45;61.34;98036.00;6189930;23;20162;-89
2023/10/27 00:05:59;;;;;;;10.63;1.43;;;;;;;20.40;61.45;98030.38;6215666;23;20166;-88
2023/10/27 00:08:25;;;;;;;4.43;1.43;;;;;;;20.41;61.37;98026.72;6189394;23;20169;-89
2023/10/27 00:10:50;;;;;;;6.20;1.77;;;;;;;20.43;61.54;98026.53;6189430;23;20181;-90
2023/10/27 00:13:16;;;;;;;6.77;1.73;;;;;;;20.45;61.70;98024.53;6215662;23;20226;-89
2023/10/27 00:15:41;;;;;;;7.57;1.27;;;;;;;20.40;61.85;98017.06;6215753;23;20150;-88
2023/10/27 00:18:06;;;;;;;13.30;1.50;;;;;;;20.43;62.19;98018.56;6215649;23;20157;-89
2023/10/27 00:20:32;;;;;;;5.00;1.70;;;;;;;20.43;61.86;98018.56;6215558;23;20204;-89
2023/10/27 00:22:57;;;;;;;4.33;1.33;;;;;;;20.46;61.85;98013.72;6215648;23;20172;-89
2023/10/27 00:25:24;;;;;;;3.13;1.17;;;;;;;20.47;61.68;98015.38;6215651;23;20183;-89
2023/10/27 00:27:50;;;;;;;4.37;1.40;;;;;;;20.43;62.21;98007.91;6189001;23;20617;-88
2023/10/27 00:30:16;;;;;;;5.57;1.40;;;;;;;20.44;61.92;98014.91;6215452;23;20164;-89
2023/10/27 00:32:42;;;;;;;4.47;1.27;;;;;;;20.38;61.75;98018.22;6215499;23;20205;-89
2023/10/27 00:35:08;;;;;;;6.07;1.63;;;;;;;20.19;62.67;98012.22;6189257;23;20597;-89
2023/10/27 00:37:35;;;;;;;5.70;1.50;;;;;;;20.18;63.07;98007.91;6215693;23;20150;-89
2023/10/27 00:40:01;;;;;;;4.10;1.33;;;;;;;20.09;63.45;98002.75;6215898;23;20177;-89
2023/10/27 00:42:27;;;;;;;4.67;1.23;;;;;;;20.05;63.72;97991.63;6215238;23;20615;-89
2023/10/27 00:44:52;;;;;;;8.20;1.77;;;;;;;20.08;63.52;97996.59;6215350;23;20184;-89
2023/10/27 00:47:18;;;;;;;2.73;1.37;;;;;;;20.13;63.84;98002.25;6215512;23;20154;-89
2023/10/27 00:49:44;;;;;;;5.63;1.40;;;;;;;20.21;63.25;98002.25;6215268;23;20146;-89
2023/10/27 00:52:12;;;;;;;6.53;1.63;;;;;;;20.10;63.25;97993.75;6215729;23;20495;-89
2023/10/27 00:54:39;;;;;;;5.73;0.97;;;;;;;20.10;62.99;97997.25;6216061;23;20149;-89
2023/10/27 00:57:05;;;;;;;4.53;1.50;;;;;;;20.12;63.33;97992.63;6215457;23;20565;-89
2023/10/27 00:59:32;;;;;;;10.37;1.70;;;;;;;20.05;63.54;97994.28;6189238;23;20153;-89
2023/10/27 01:01:58;;;;;;;9.60;1.50;;;;;;;20.03;63.90;97990.13;6215315;23;20170;-88
2023/10/27 01:04:25;;;;;;;3.40;1.23;;;;;;;19.99;63.72;97997.63;6188898;23;20217;-89
2023/10/27 01:06:51;;;;;;;2.97;1.00;;;;;;;20.02;64.00;97991.16;6215739;23;20141;-88
2023/10/27 01:09:17;;;;;;;6.07;1.47;;;;;;;20.09;63.38;97992.97;6215268;23;20203;-89
2023/10/27 01:11:42;;;;;;;8.73;2.60;;;;;;;19.99;63.36;97991.47;6215183;23;20189;-89
2023/10/27 01:14:08;;;;;;;4.90;1.53;;;;;;;19.91;63.86;97989.66;6215900;23;20576;-88
2023/10/27 01:16:33;;;;;;;4.97;1.20;;;;;;;19.90;63.83;97987.16;6215337;23;20157;-89
2023/10/27 01:18:59;;;;;;;8.23;1.77;;;;;;;19.79;64.27;97996.28;6215119;23;20220;-89
2023/10/27 01:21:24;;;;;;;6.50;1.33;;;;;;;19.78;64.48;97993.81;6215119;23;20154;-89
2023/10/27 01:23:50;;;;;;;5.70;1.67;;;;;;;19.87;64.55;97998.94;6215686;23;20217;-89
2023/10/27 01:26:15;;;;;;;4.97;1.20;;;;;;;19.92;64.21;97988.63;6189125;23;20601;-88
2023/10/27 01:28:40;;;;;;;4.30;1.50;;;;;;;19.84;64.77;97983.31;6215188;23;20146;-89
2023/10/27 01:31:06;;;;;;;4.83;1.60;;;;;;;19.90;64.77;97990.63;6215549;23;20173;-88
2023/10/27 01:33:32;;;;;;;6.93;1.33;;;;;;;19.94;64.57;97986.63;6189021;23;20237;-89
2023/10/27 01:35:58;;;;;;;8.90;1.57;;;;;;;19.99;64.64;97997.63;6215313;23;20549;-89
2023/10/27 01:38:23;;;;;;;10.07;1.97;;;;;;;20.02;64.52;97994.59;6215627;23;20161;-89
2023/10/27 01:40:49;;;;;;;5.60;1.57;;;;;;;20.07;64.36;97994.13;6216692;23;20152;-89
2023/10/27 01:43:14;;;;;;;8.50;1.40;;;;;;;20.12;64.27;97992.63;6217144;23;20290;-89
2023/10/27 01:45:40;;;;;;;4.87;2.13;;;;;;;20.12;64.39;97991.78;6216966;23;20215;-89
2023/10/27 01:48:05;;;;;;;5.43;1.60;;;;;;;20.06;64.16;97990.63;6216845;23;20149;-89
2023/10/27 01:50:30;;;;;;;4.87;1.57;;;;;;;20.02;64.22;97993.81;6217636;23;20149;-89
2023/10/27 01:52:56;;;;;;;6.37;1.97;;;;;;;20.04;64.23;97984.66;6217004;23;20154;-89
2023/10/27 01:55:21;;;;;;;5.50;1.67;;;;;;;20.00;63.88;97979.81;6190630;23;20158;-89
2023/10/27 01:57:47;;;;;;;8.03;2.57;;;;;;;19.94;63.98;97978.66;6217042;23;20170;-89
2023/10/27 02:00:13;;;;;;;5.53;1.40;;;;;;;19.81;64.18;97980.19;6217334;23;20642;-89
2023/10/27 02:02:38;;;;;;;3.80;1.13;;;;;;;19.79;64.37;97979.50;6216872;23;20141;-89
2023/10/27 02:05:05;;;;;;;6.30;1.03;;;;;;;19.84;64.14;97988.63;6190280;23;20174;-89
2023/10/27 02:07:30;;;;;;;5.90;1.53;;;;;;;19.86;63.93;98007.94;6217539;23;20153;-89
2023/10/27 02:10:01;;;;;;;6.13;1.23;;;;;;;19.82;63.90;98016.38;6190511;23;20158;-89
2023/10/27 02:12:27;;;;;;;5.53;1.37;;;;;;;19.87;63.74;98017.56;6216727;23;20174;-89
2023/10/27 02:14:53;;;;;;;6.23;1.13;;;;;;;19.92;63.49;98015.22;6190594;23;20476;-89
2023/10/27 02:17:18;;;;;;;4.23;1.63;;;;;;;19.87;63.27;98012.25;6216875;23;20232;-89
2023/10/27 02:19:44;;;;;;;7.80;1.90;;;;;;;19.87;63.21;98014.06;6190548;23;20223;-89
2023/10/27 02:22:09;;;;;;;6.40;1.37;;;;;;;19.82;63.21;98016.38;6216586;23;20205;-89
2023/10/27 02:24:37;;;;;;;5.33;1.33;;;;;;;19.86;62.98;98018.56;6216781;23;20592;-89
2023/10/27 02:27:03;;;;;;;5.63;1.20;;;;;;;19.76;62.97;98017.88;6216632;23;20229;-89
2023/10/27 02:29:29;;;;;;;9.97;1.40;;;;;;;19.74;63.17;98003.94;6216693;23;20173;-89
2023/10/27 02:31:54;;;;;;;5.07;1.50;;;;;;;19.66;63.31;98011.06;6216406;23;20550;-89
2023/10/27 02:34:20;;;;;;;3.57;0.90;;;;;;;19.74;63.29;98022.53;6216720;23;20178;-89
2023/10/27 02:36:45;;;;;;;3.73;1.20;;;;;;;19.84;62.96;98025.88;6216524;23;20149;-89
2023/10/27 02:39:11;;;;;;;5.70;1.57;;;;;;;19.96;62.54;98019.25;6216663;23;20148;-89
2023/10/27 02:41:36;;;;;;;7.27;1.60;;;;;;;20.01;62.38;98024.88;6190740;23;20146;-89
2023/10/27 02:44:03;;;;;;;4.20;1.23;;;;;;;19.93;62.94;98032.03;6190400;23;20158;-89
2023/10/27 02:46:29;;;;;;;2.87;1.00;;;;;;;19.83;62.78;98037.50;6216566;23;20173;-89
2023/10/27 02:48:54;;;;;;;4.53;1.13;;;;;;;19.71;63.42;98046.78;6216615;23;20156;-89
2023/10/27 02:51:21;;;;;;;10.57;2.20;;;;;;;19.62;63.81;98045.13;6216049;23;20257;-89
2023/10/27 02:53:47;;;;;;;7.60;1.67;;;;;;;19.70;64.13;98041.66;6217123;23;20142;-89
2023/10/27 02:56:12;;;;;;;9.23;1.67;;;;;;;19.84;63.27;98041.81;6189966;23;20150;-89
2023/10/27 02:58:38;;;;;;;6.27;1.63;;;;;;;19.90;63.24;98041.16;6216443;23;20215;-89
2023/10/27 03:01:09;;;;;;;5.53;1.60;;;;;;;19.77;63.26;98038.16;6217072;23;20145;-89
2023/10/27 03:03:38;;;;;;;7.50;1.37;;;;;;;19.69;63.79;98046.13;6216689;23;20145;-90
2023/10/27 03:06:03;;;;;;;4.33;1.37;;;;;;;19.62;63.73;98039.81;6216242;23;20612;-89
2023/10/27 03:08:30;;;;;;;5.83;1.33;;;;;;;19.69;63.56;98043.47;6217019;23;20150;-89
2023/10/27 03:10:56;;;;;;;5.10;1.73;;;;;;;19.60;64.02;98036.50;6189914;23;20181;-88
2023/10/27 03:13:21;;;;;;;7.30;1.30;;;;;;;19.55;64.20;98030.81;6216220;23;20192;-89
2023/10/27 03:15:47;;;;;;;6.77;1.40;;;;;;;19.46;64.47;98031.81;6216625;23;20160;-89
2023/10/27 03:18:12;;;;;;;5.87;1.13;;;;;;;19.53;64.56;98033.66;6216307;23;20149;-89
2023/10/27 03:20:38;;;;;;;6.73;1.67;;;;;;;19.54;64.52;98023.84;6190059;23;20154;-89
2023/10/27 03:23:03;;;;;;;3.70;1.77;;;;;;;19.57;64.21;98012.91;6189993;23;20216;-89
2023/10/27 03:25:29;;;;;;;8.80;1.40;;;;;;;19.54;64.47;98003.44;6216216;23;20150;-89
2023/10/27 03:27:54;;;;;;;4.33;1.37;;;;;;;19.57;64.76;98002.25;6216182;23;20160;-89
2023/10/27 03:30:21;;;;;;;10.07;1.60;;;;;;;19.66;64.56;98008.41;6216760;23;20148;-89
2023/10/27 03:32:47;;;;;;;3.60;1.73;;;;;;;19.72;64.47;97999.78;6215947;23;20177;-89
2023/10/27 03:35:14;;;;;;;4.93;1.60;;;;;;;19.74;64.33;98011.91;6215952;23;20257;-89
2023/10/27 03:37:40;;;;;;;4.33;1.73;;;;;;;19.81;63.99;98014.75;6215586;23;20146;-89
2023/10/27 03:40:06;;;;;;;7.63;1.40;;;;;;;19.86;63.94;98015.09;6189497;23;20223;-89
2023/10/27 03:42:31;;;;;;;4.03;1.80;;;;;;;19.88;63.52;98013.91;6215727;23;20581;-89
2023/10/27 03:44:57;;;;;;;2.87;1.20;;;;;;;19.89;63.75;98015.56;6215611;23;20180;-89
2023/10/27 03:47:22;;;;;;;3.63;1.07;;;;;;;19.84;63.52;98007.25;6216128;23;20196;-89
2023/10/27 03:49:48;;;;;;;5.30;1.53;;;;;;;19.77;63.55;98008.91;6189384;23;20203;-89
2023/10/27 03:52:13;;;;;;;3.40;1.27;;;;;;;19.76;63.62;97995.81;6215492;23;20173;-89
2023/10/27 03:54:39;;;;;;;4.17;1.27;;;;;;;19.77;63.68;97995.63;6215976;23;20156;-89
2023/10/27 03:57:04;;;;;;;10.10;1.77;;;;;;;19.76;63.83;97998.47;6215265;23;20146;-89
2023/10/27 03:59:30;;;;;;;4.90;1.33;;;;;;;19.83;63.58;97999.44;6215772;23;20146;-89
2023/10/27 04:01:55;;;;;;;5.93;1.67;;;;;;;19.85;63.68;97994.78;6215126;23;20585;-88
2023/10/27 04:04:20;;;;;;;4.97;1.30;;;;;;;19.76;63.73;97996.59;6215461;23;20149;-89
2023/10/27 04:06:46;;;;;;;5.30;1.47;;;;;;;19.69;64.04;98006.25;6215829;23;20130;-88
2023/10/27 04:09:12;;;;;;;7.20;1.63;;;;;;;19.63;64.31;98002.41;6215892;23;20629;-88
2023/10/27 04:11:37;;;;;;;7.00;1.70;;;;;;;19.67;64.25;97996.78;6215524;23;20188;-88
2023/10/27 04:14:04;;;;;;;6.33;1.33;;;;;;;19.71;64.16;98001.59;6216066;23;20153;-88
2023/10/27 04:16:30;;;;;;;7.63;1.40;;;;;;;19.71;64.03;97996.28;6215565;23;20642;-88
2023/10/27 04:18:56;;;;;;;8.73;1.90;;;;;;;19.76;63.89;97983.31;6215768;23;20153;-89
2023/10/27 04:21:21;;;;;;;5.17;1.27;;;;;;;19.80;63.80;97986.47;6215469;23;20644;-89
2023/10/27 04:23:47;;;;;;;10.93;1.80;;;;;;;19.77;63.72;97979.66;6215728;23;20700;-89
2023/10/27 04:26:13;;;;;;;3.67;1.37;;;;;;;19.83;63.67;97978.19;6216074;23;20153;-89
2023/10/27 04:28:39;;;;;;;7.23;1.53;;;;;;;19.86;63.88;97976.03;6215657;23;20150;-89
2023/10/27 04:31:05;;;;;;;7.47;1.57;;;;;;;19.91;63.77;97976.34;6215429;23;20643;-89
2023/10/27 04:33:31;;;;;;;5.07;1.43;;;;;;;19.95;63.61;97974.16;6215667;23;20149;-89
2023/10/27 04:35:56;;;;;;;2.97;1.10;;;;;;;19.98;63.31;97974.69;6215431;23;20580;-89
2023/10/27 04:38:22;;;;;;;4.50;1.07;;;;;;;20.00;62.90;97975.34;6215433;23;20578;-88
2023/10/27 04:40:48;;;;;;;3.43;1.17;;;;;;;19.96;63.05;97978.50;6215407;23;20146;-88
2023/10/27 04:43:14;;;;;;;3.57;1.50;;;;;;;19.92;63.16;97977.16;6215888;23;20157;-89
2023/10/27 04:45:39;;;;;;;7.90;1.73;;;;;;;19.92;63.24;97974.50;6215557;23;20149;-89
2023/10/27 04:48:05;;;;;;;7.93;1.50;;;;;;;19.88;63.18;97987.31;6215594;23;20154;-89
2023/10/27 04:50:35;;;;;;;4.77;1.33;;;;;;;19.81;63.00;97986.31;6215517;23;20153;-89
2023/10/27 04:53:01;;;;;;;4.70;1.30;;;;;;;19.83;63.31;97987.00;6215830;23;20157;-89
2023/10/27 04:55:26;;;;;;;3.40;1.40;;;;;;;19.98;62.70;97990.63;6215346;23;20235;-89
2023/10/27 04:57:52;;;;;;;10.60;1.90;;;;;;;20.03;62.52;97998.09;6215532;23;20149;-89
2023/10/27 05:00:17;;;;;;;6.67;2.37;;;;;;;19.90;62.69;97993.31;6215246;23;20578;-89
2023/10/27 05:02:43;;;;;;;5.17;1.73;;;;;;;19.80;62.96;97989.16;6215450;23;20146;-89
2023/10/27 05:05:09;;;;;;;6.30;1.33;;;;;;;19.70;63.27;97997.28;6215442;23;20192;-89
2023/10/27 05:07:36;;;;;;;3.70;1.80;;;;;;;19.63;63.50;97997.09;6215364;23;20612;-89
2023/10/27 05:10:01;;;;;;;8.23;1.70;;;;;;;19.61;63.63;97992.94;6215266;23;20213;-89
2023/10/27 05:12:27;;;;;;;11.33;1.60;;;;;;;19.61;63.61;97987.63;6215409;23;20205;-89
2023/10/27 05:14:52;;;;;;;11.50;1.90;;;;;;;19.67;62.98;97994.97;6217100;23;20233;-89
2023/10/27 05:17:18;;;;;;;4.50;1.50;;;;;;;19.67;63.28;97992.31;6217702;23;20148;-89
2023/10/27 05:19:43;;;;;;;8.43;2.70;;;;;;;19.63;63.33;97991.78;6217076;23;20177;-88
2023/10/27 05:22:09;;;;;;;3.97;1.13;;;;;;;19.65;63.38;97993.47;6218056;23;20145;-89
2023/10/27 05:24:34;;;;;;;5.10;1.63;;;;;;;19.65;63.47;97998.78;6217500;23;20157;-89
2023/10/27 05:27:00;;;;;;;5.47;1.53;;;;;;;19.68;63.29;98001.13;6217543;23;20578;-89
2023/10/27 05:29:26;;;;;;;6.80;2.00;;;;;;;19.71;63.52;97998.09;6217277;23;20154;-89
2023/10/27 05:31:54;;;;;;;3.27;1.27;;;;;;;19.71;63.60;97996.28;6217236;23;20257;-88
2023/10/27 05:34:19;;;;;;;5.60;1.30;;;;;;;19.77;63.62;97990.31;6191021;23;20544;-88
2023/10/27 05:36:45;;;;;;;5.00;1.07;;;;;;;19.91;63.54;97994.97;6217251;23;20167;-88
2023/10/27 05:39:16;;;;;;;5.07;2.17;;;;;;;19.98;63.87;97995.13;6217216;23;20231;-88
2023/10/27 05:41:47;;;;;;;6.57;2.17;;;;;;;20.19;63.54;97977.66;6217548;23;20137;-88
2023/10/27 05:44:14;;;;;;;13.77;2.33;;;;;;;20.32;63.85;97984.28;6217462;23;20134;-89
2023/10/27 05:46:40;;;;;;;6.83;2.53;;;;;;;20.58;63.68;97988.41;6217138;23;20217;-88
2023/10/27 05:49:06;;;;;;;10.70;2.30;;;;;;;20.81;63.31;97991.97;6217138;23;20165;-89
2023/10/27 05:51:35;;;;;;;7.30;2.37;;;;;;;21.06;62.21;97995.41;6216876;23;20203;-89
2023/10/27 05:54:01;;;;;;;12.87;2.07;;;;;;;21.31;61.25;97986.25;6217076;23;20169;-89
2023/10/27 05:56:27;;;;;;;9.93;2.53;;;;;;;21.36;61.21;97988.38;6217178;23;20149;-89
2023/10/27 05:58:53;;;;;;;8.93;2.10;;;;;;;21.43;61.13;97992.84;6217007;23;20150;-89
2023/10/27 06:01:19;;;;;;;7.87;2.00;;;;;;;21.47;60.94;97990.66;6216863;23;20593;-89
2023/10/27 06:03:44;;;;;;;12.13;2.13;;;;;;;21.60;61.53;97990.06;6190835;23;20594;-89
2023/10/27 06:06:10;;;;;;;9.27;1.90;;;;;;;22.04;60.95;97999.91;6190379;23;20165;-89
2023/10/27 06:08:41;;;;;;;14.10;3.00;;;;;;;22.56;59.39;97988.41;6216640;23;20146;-89
2023/10/27 06:11:06;;;;;;;5.97;1.83;;;;;;;22.83;57.41;97989.59;6216917;23;20200;-89
2023/10/27 06:13:32;;;;;;;10.00;2.30;;;;;;;22.90;57.34;97990.53;6190540;23;20165;-89
2023/10/27 06:15:57;;;;;;;5.60;2.30;;;;;;;23.14;56.63;97988.38;6217468;23;20158;-89
2023/10/27 06:18:22;;;;;;;11.37;2.20;;;;;;;23.65;56.50;97983.81;6216836;23;20146;-89
2023/10/27 06:20:48;;;;;;;10.73;2.10;;;;;;;24.23;54.60;97985.41;6216851;23;20156;-89
2023/10/27 06:23:13;;;;;;;7.77;2.93;;;;;;;24.53;52.48;97991.34;6216732;23;20232;-89
2023/10/27 06:25:39;;;;;;;8.20;2.33;;;;;;;24.60;52.38;97996.78;6216401;23;20156;-89
2023/10/27 06:28:04;;;;;;;5.20;1.93;;;;;;;24.49;52.67;97995.47;6216596;23;20533;-89
2023/10/27 06:30:30;;;;;;;13.23;3.27;;;;;;;24.37;53.10;97997.06;6216797;23;20573;-89
2023/10/27 06:32:55;;;;;;;11.13;2.43;;;;;;;24.25;53.83;97999.41;6216328;23;20177;-89
2023/10/27 06:35:21;;;;;;;17.20;2.57;;;;;;;24.16;54.21;97983.69;6217066;23;20633;-89
2023/10/27 06:37:46;;;;;;;7.43;2.17;;;;;;;24.10;54.65;97993.34;6216666;23;20150;-89
2023/10/27 06:40:12;;;;;;;7.17;1.90;;;;;;;24.06;54.85;98000.03;6216949;23;20149;-89
2023/10/27 06:42:37;;;;;;;10.00;2.07;;;;;;;23.98;55.00;97989.47;6216648;23;20217;-89
2023/10/27 06:45:03;;;;;;;6.87;2.30;;;;;;;23.93;54.95;97996.41;6216441;23;20150;-89
2023/10/27 06:47:29;;;;;;;6.60;2.00;;;;;;;23.85;55.09;97982.16;6190408;23;20220;-89
2023/10/27 06:49:55;;;;;;;15.03;3.60;;;;;;;23.82;55.36;97992.41;6216408;23;20153;-89
2023/10/27 06:52:20;;;;;;;14.83;2.93;;;;;;;23.86;55.09;97993.69;6190252;23;20185;-89
2023/10/27 06:54:46;;;;;;;7.80;2.50;;;;;;;23.73;55.47;97996.25;6216770;23;20161;-89
2023/10/27 06:57:12;;;;;;;9.70;3.67;;;;;;;23.76;57.64;97990.53;6216282;23;20146;-89
2023/10/27 06:59:37;;;;;;;9.83;2.60;;;;;;;23.97;58.60;97989.69;6216513;23;20149;-89
2023/10/27 07:02:03;;;;;;;15.53;3.00;;;;;;;24.08;56.12;97986.47;6190027;23;20577;-89
2023/10/27 07:04:28;;;;;;;7.80;2.13;;;;;;;24.14;54.93;97991.91;6190052;23;20173;-89
2023/10/27 07:06:54;;;;;;;11.37;2.27;;;;;;;24.20;55.48;97990.31;6216634;23;20495;-89
2023/10/27 07:09:19;;;;;;;10.87;2.67;;;;;;;24.29;55.19;97991.84;6216273;23;20162;-89
2023/10/27 07:11:45;;;;;;;12.03;2.53;;;;;;;24.38;54.40;97994.16;6216221;23;20260;-90
2023/10/27 07:14:13;;;;;;;9.17;2.33;;;;;;;24.43;54.63;97993.56;6216392;23;20154;-89
2023/10/27 07:16:40;;;;;;;8.97;2.10;;;;;;;24.71;55.47;97989.00;6215968;23;20211;-89
2023/10/27 07:19:05;;;;;;;7.50;1.87;;;;;;;24.94;53.34;97989.59;6190090;23;20150;-90
2023/10/27 07:21:30;;;;;;;11.23;2.23;;;;;;;25.12;51.86;97972.94;6189995;23;20160;-90
2023/10/27 07:23:56;;;;;;;7.07;2.10;;;;;;;25.20;50.42;97967.41;6216671;23;20188;-89
2023/10/27 07:26:21;;;;;;;5.60;1.33;;;;;;;25.31;49.92;97968.69;6190411;23;20150;-89
2023/10/27 07:28:47;;;;;;;4.27;1.13;;;;;;;25.42;49.03;97968.09;6216829;23;20146;-89
2023/10/27 07:31:13;;;;;;;6.17;1.67;;;;;;;25.55;47.90;97965.47;6189733;23;20182;-90
2023/10/27 07:33:39;;;;;;;7.10;1.90;;;;;;;25.67;47.62;97973.75;6216182;23;20199;-89
2023/10/27 07:36:07;;;;;;;5.67;1.17;;;;;;;25.79;47.33;97966.72;6216366;23;20146;-90
2023/10/27 07:38:34;;;;;;;12.43;2.30;;;;;;;25.72;46.68;97974.78;6215802;23;20149;-90
2023/10/27 07:41:00;;;;;;;11.63;3.13;;;;;;;25.76;47.05;97959.91;6217120;23;20212;-90
2023/10/27 07:43:29;;;;;;;11.60;2.30;;;;;;;25.84;47.23;97953.53;6215976;23;20551;-90
2023/10/27 07:45:54;;;;;;;7.37;1.60;;;;;;;25.90;47.57;97947.34;6216052;23;20154;-89
2023/10/27 07:48:21;;;;;;;7.30;1.40;;;;;;;25.91;46.50;97944.47;6189953;23;20154;-90
2023/10/27 07:50:46;;;;;;;6.47;1.67;;;;;;;26.02;47.38;97951.06;6189666;23;20188;-90
2023/10/27 07:53:28;;;;;;;10.87;2.83;;;;;;;26.03;47.13;97950.84;6215790;23;20150;-90
2023/10/27 07:55:55;;;;;;;7.63;2.47;;;;;;;26.03;46.67;97955.38;6215988;23;20211;-90
2023/10/27 07:58:21;;;;;;;8.93;2.77;;;;;;;26.00;46.85;97940.50;6215916;23;20592;-90
2023/10/27 08:00:47;;;;;;;9.53;2.53;;;;;;;25.95;46.16;97937.63;6215669;23;20149;-90
2023/10/27 08:03:13;;;;;;;12.53;3.23;;;;;;;26.02;47.71;97938.44;6216134;23;20196;-89
2023/10/27 08:05:38;;;;;;;7.73;2.07;;;;;;;26.05;47.40;97935.34;6215678;23;20577;-90
2023/10/27 08:08:04;;;;;;;7.67;2.40;;;;;;;26.36;47.21;97936.59;6215900;23;20216;-90
2023/10/27 08:10:30;;;;;;;9.53;2.77;;;;;;;26.51;46.97;97932.63;6215876;23;20585;-90
2023/10/27 08:12:56;;;;;;;8.32;1.88;;;;;;;26.77;45.08;97923.69;6189505;23;20177;-91
2023/10/27 08:15:23;;;;;;;9.33;1.80;;;;;;;27.03;45.03;97920.91;6189418;23;20154;-90
2023/10/27 08:17:49;;;;;;;12.02;1.83;;;;;;;27.17;44.77;97914.41;6215528;23;20160;-90
2023/10/27 08:20:15;;;;;;;10.27;1.50;;;;;;;27.39;45.12;97918.44;6215496;23;20150;-90
2023/10/27 08:22:43;;;;;;;8.50;1.85;;;;;;;27.49;43.86;97909.88;6216086;23;20600;-90
2023/10/27 08:25:08;;;;;;;7.53;2.33;;;;;;;27.51;42.84;97915.06;6215702;23;20153;-90
2023/10/27 08:27:34;;;;;;;7.32;1.75;;;;;;;27.52;43.24;97911.31;6215707;23;20150;-91
2023/10/27 08:30:00;;;;;;;7.95;2.15;;;;;;;27.48;43.11;97905.56;6215591;23;20160;-91
2023/10/27 08:32:26;;;;;;;9.27;2.30;;;;;;;27.54;43.74;97901.19;6216493;23;20174;-91
2023/10/27 08:34:55;;;;;;;8.05;1.50;;;;;;;27.37;41.69;97892.75;6215723;23;20150;-91
2023/10/27 08:37:25;;;;;;;5.72;1.25;;;;;;;27.07;41.31;97887.13;6188927;23;20168;-93
2023/10/27 08:39:51;;;;;;;7.18;1.55;;;;;;;27.01;41.95;97893.41;6213703;23;20157;-89
2023/10/27 08:42:18;;;;;;;11.75;1.60;;;;;;;27.11;41.59;97895.63;6213293;23;20142;-90
2023/10/27 08:44:44;;;;;;;5.75;1.42;;;;;;;27.22;40.92;97889.56;6213229;23;20150;-91
2023/10/27 08:47:10;;;;;;;6.72;1.52;;;;;;;27.36;41.31;97891.09;6213476;23;20152;-91
2023/10/27 08:49:36;;;;;;;5.05;1.00;;;;;;;27.47;40.69;97886.91;6213396;23;20160;-91
2023/10/27 08:52:02;;;;;;;4.57;0.90;;;;;;;27.37;40.20;97892.75;6213388;23;20260;-90
2023/10/27 08:54:30;;;;;;;6.10;1.38;;;;;;;27.53;39.84;97894.97;6188142;23;20482;-91
2023/10/27 08:56:55;;;;;;;2.38;0.80;;;;;;;27.70;39.48;97897.97;6215468;23;20173;-92
2023/10/27 08:59:21;;;;;;;3.90;1.00;;;;;;;27.69;39.56;97885.53;6215606;23;20146;-90
2023/10/27 09:01:46;;;;;;;4.32;1.15;;;;;;;27.73;39.89;97892.09;6215542;23;20220;-90
2023/10/27 09:04:15;;;;;;;4.45;0.85;;;;;;;27.62;39.42;97895.53;6188784;23;20150;-91
2023/10/27 09:06:58;;;;;;;5.68;1.13;;;;;;;27.41;40.45;97889.44;6189506;23;20475;-96
2023/10/27 09:09:25;;;;;;;6.28;1.30;;;;;;;27.51;41.22;97880.06;6216212;23;20244;-89
2023/10/27 09:11:51;;;;;;;5.95;1.88;;;;;;;27.49;40.87;97896.44;6215356;23;20188;-90
2023/10/27 09:14:30;;;;;;;14.20;1.92;;;;;;;27.54;41.63;97898.50;6215973;23;20673;-92
2023/10/27 09:17:15;;;;;;;8.88;2.08;;;;;;;27.59;41.69;97893.28;6215838;23;20134;-91
2023/10/27 09:19:41;;;;;;;7.22;1.98;;;;;;;27.72;41.10;97887.78;6189386;23;20145;-91
2023/10/27 09:22:29;;;;;;;5.43;1.05;;;;;;;27.84;40.72;97886.00;6215524;23;20172;-90
2023/10/27 09:25:12;;;;;;;5.75;1.20;;;;;;;27.68;41.15;97878.47;6196233;23;20164;-91
2023/10/27 09:27:42;;;;;;;6.22;1.10;;;;;;;27.73;41.59;97875.94;6189087;23;20520;-89
2023/10/27 09:30:08;;;;;;;7.68;1.45;;;;;;;27.83;40.79;97860.16;6189273;23;20161;-90
2023/10/27 09:32:34;;;;;;;6.90;1.23;;;;;;;27.77;40.05;97852.94;6215718;23;20180;-89
2023/10/27 09:35:17;;;;;;;5.38;1.48;;;;;;;27.84;40.52;97845.63;6188964;23;20212;-90
2023/10/27 09:37:45;;;;;;;4.07;1.10;;;;;;;28.06;40.05;97838.81;6215717;23;20209;-89
2023/10/27 09:40:18;;;;;;;8.40;1.30;;;;;;;28.16;40.06;97827.50;6189457;23;20229;-95
2023/10/27 09:42:43;;;;;;;5.80;1.33;;;;;;;28.34;40.30;97830.22;6216149;23;20142;-90
2023/10/27 09:45:13;;;;;;;8.48;1.10;;;;;;;28.57;39.40;97831.19;6189428;23;20157;-95
2023/10/27 09:47:49;;;;;;;4.28;1.33;;;;;;;28.61;39.30;97815.38;6189918;23;20157;-91
2023/10/27 09:50:22;;;;;;;7.38;1.38;;;;;;;28.75;38.78;97826.84;6189515;23;20145;-91
2023/10/27 09:52:49;;;;;;;9.80;1.55;;;;;;;28.76;38.73;97812.31;6216139;23;20262;-91
2023/10/27 09:55:19;;;;;;;6.75;1.70;;;;;;;28.73;38.93;97807.34;6215697;23;20157;-92
2023/10/27 09:57:48;;;;;;;4.75;1.75;;;;;;;28.98;39.40;97794.56;6188975;23;20150;-92
2023/10/27 10:00:37;;;;;;;10.02;1.50;;;;;;;29.11;38.34;97789.78;6189303;23;20459;-89
2023/10/27 10:03:05;;;;;;;8.32;1.70;;;;;;;29.23;38.29;97782.56;6217448;23;20146;-90
2023/10/27 10:06:08;;;;;;;6.03;1.02;;;;;;;29.13;37.79;97781.47;6190759;23;20197;-90
2023/10/27 10:08:37;;;;;;;12.57;1.92;;;;;;;29.04;38.07;97769.34;6218277;23;20228;-94
2023/10/27 10:11:18;;;;;;;8.88;1.48;;;;;;;28.96;38.20;97765.09;6191113;23;20596;-91
2023/10/27 10:13:44;;;;;;;6.63;1.02;;;;;;;28.87;38.73;97765.69;6217537;23;20627;-90
2023/10/27 10:16:11;;;;;;;7.50;1.55;;;;;;;28.89;38.72;97761.69;6190465;23;20196;-92
2023/10/27 10:18:36;;;;;;;2.72;0.77;;;;;;;28.63;38.53;97760.19;6217150;23;20211;-91
2023/10/27 10:21:22;;;;;;;8.68;1.05;;;;;;;28.84;38.67;97761.56;6216759;23;20486;-91
2023/10/27 10:23:50;;;;;;;9.23;1.10;;;;;;;28.85;38.38;97754.31;6215464;23;20236;-92
2023/10/27 10:26:15;;;;;;;2.90;1.00;;;;;;;28.64;38.14;97755.63;6217488;23;20153;-93
2023/10/27 10:28:41;;;;;;;6.38;1.20;;;;;;;28.47;37.99;97755.41;6217387;23;20145;-92
2023/10/27 10:31:06;;;;;;;5.80;0.82;;;;;;;28.29;38.45;97754.59;6190620;23;20185;-90
2023/10/27 10:33:33;;;;;;;3.80;0.77;;;;;;;28.14;37.64;97752.31;6217020;23;20150;-89
2023/10/27 10:36:15;;;;;;;6.53;1.17;;;;;;;28.09;38.88;97749.47;6191444;23;20157;-90
2023/10/27 10:39:13;;;;;;;4.00;0.90;;;;;;;27.85;39.76;97755.72;6217596;23;20226;-92
2023/10/27 10:41:58;;;;;;;;;;;;;;;;;;;;;
2023/10/27 10:44:28;;;;;;;4.43;1.23;;;;;;;28.08;40.45;97736.22;6217455;23;20229;-96
2023/10/27 10:46:53;;;;;;;5.85;0.90;;;;;;;27.79;40.29;97737.75;6190954;23;20596;-91
2023/10/27 10:49:24;;;;;;;9.18;2.47;;;;;;;27.76;40.99;97728.25;6217496;23;20158;-91
2023/10/27 10:51:58;;;;;;;7.28;1.38;;;;;;;27.54;40.87;97720.81;6216718;23;20192;-92
2023/10/27 10:54:33;;;;;;;7.88;1.50;;;;;;;27.56;41.04;97718.72;6217299;23;20561;-90
2023/10/27 10:57:38;;;;;;;;;;;;;;;;;;;;;
2023/10/27 11:00:08;;;;;;;6.40;1.08;;;;;;;27.19;41.38;97715.94;6182730;23;20236;-93
2023/10/27 11:02:33;;;;;;;9.13;2.10;;;;;;;27.35;41.15;97707.31;6192209;23;20160;-92
2023/10/27 11:05:24;;;;;;;10.30;1.65;;;;;;;27.49;41.04;97699.94;6216367;23;20592;-96
2023/10/27 11:07:50;;;;;;;5.03;1.30;;;;;;;27.52;40.93;97691.44;6216956;23;20153;-90
2023/10/27 11:10:24;;;;;;;5.75;1.10;;;;;;;27.36;41.32;97686.59;6217591;23;20218;-92
2023/10/27 11:13:00;;;;;;;12.73;1.75;;;;;;;27.39;41.14;97691.53;6216965;23;20174;-92
2023/10/27 11:15:45;;;;;;;11.35;2.17;;;;;;;27.43;40.90;97698.16;6216778;23;20130;-91
2023/10/27 11:18:42;;;;;;;7.55;1.92;;;;;;;27.45;41.58;97704.13;6190820;23;20186;-91
2023/10/27 11:21:34;;;;;;;8.85;1.67;;;;;;;27.30;41.14;97707.16;6206901;23;20538;-90
2023/10/27 11:24:11;;;;;;;9.52;1.65;;;;;;;27.29;41.38;97701.97;6171936;23;20161;-92
2023/10/27 11:26:45;;;;;;;7.85;1.42;;;;;;;27.26;41.33;97708.63;6191200;23;20285;-90
2023/10/27 11:29:17;;;;;;;6.28;1.13;;;;;;;27.31;41.51;97713.34;6190865;23;20153;-94
2023/10/27 11:31:43;;;;;;;10.32;1.00;;;;;;;27.44;41.41;97711.38;6216412;23;20244;-90
2023/10/27 11:34:16;;;;;;;8.05;1.88;;;;;;;27.24;41.35;97705.34;6216617;23;20180;-93
2023/10/27 11:37:05;;;;;;;7.55;1.73;;;;;;;27.20;41.16;97706.81;6191377;23;20593;-91